Météo Nord-Pas-de-Calais   La météo au plus près de chez vous

Station météorologique

Observations météo à Chastreix (63098)

63098001 1385 m Dernier relevé à 23:18
12.2°C
Humidité 55 % Vent 8.3 km/h

Journée consultée

Mardi 1 Septembre 2026

Synthèse de la journée

Périodes de référence en UTC

Température maximale

19.7°C

à 17:00

06h 06h

Température minimale

9.3°C

à 08:00

18h 18h

Rafale maximale

22 km/h

à 16:12

00h 00h

Précipitations

0 mm

Cumul quotidien

06h 06h

Ensoleillement

11h 24 mins

Durée quotidienne

00h 00h

Graphiques de la journée

Heure locale Réduire

Données détaillées

Relevés météo

Pas de 6 minutes Afficher les relevés infra-horaires
Relevés météo détaillés à Chastreix pour le Mardi 1 Septembre 2026
Heure Température °C Point de rosée °C Humidité % Vent moyen (raf.), km/h Précipitations mm Hauteur neige cm Ensoleillement min Rayonnement global W/m²
23:18 12.2 °C 5.8 °C 65 % 11 km/h (14 km/h) 0 mm0 mm 0 cm 0 min 0 W/m²
23:12 12.2 °C 5.4 °C 63 % 10 km/h (12 km/h) 0 mm0 mm 0 cm 0 min 0 W/m²
23:06 12.6 °C 5.3 °C 61 % 10 km/h (14 km/h) 0 mm0 mm 0 cm 0 min 0 W/m²
23:00 13.1 °C 5.3 °C 59 % 10 km/h (14 km/h) 0 mm0 mm 0 cm 0 min 0 W/m²
22:54 13.4 °C 5.3 °C 58 % 11 km/h (14 km/h) 0 mm0 mm 0 cm 0 min 0 W/m²
22:48 13.2 °C 4.9 °C 57 % 10 km/h (13 km/h) 0 mm0 mm 0 cm 0 min 0 W/m²
22:42 13.4 °C 4.8 °C 56 % 10 km/h (13 km/h) 0 mm0 mm 0 cm 0 min 0 W/m²
22:36 13.5 °C 4.6 °C 55 % 9 km/h (12 km/h) 0 mm0 mm 0 cm 0 min 0 W/m²
22:30 13.8 °C 4.9 °C 55 % 9 km/h (12 km/h) 0 mm0 mm 0 cm 0 min 0 W/m²
22:24 13.9 °C 5 °C 55 % 9 km/h (12 km/h) 0 mm0 mm 0 cm 0 min 0 W/m²
22:18 14.4 °C 5.5 °C 55 % 8 km/h (11 km/h) 0 mm0 mm 0 cm 0 min 0 W/m²
22:12 14.2 °C 5.3 °C 55 % 8 km/h (11 km/h) 0 mm0 mm 0 cm 0 min 0 W/m²
22:06 14.5 °C 5.6 °C 55 % 6 km/h (8 km/h) 0 mm0 mm 0 cm 0 min 0 W/m²
22:00 14.8 °C 5.8 °C 55 % 5 km/h (8 km/h) 0 mm0 mm 0 cm 0 min 0 W/m²
21:54 14.8 °C 6.1 °C 56 % 4 km/h (6 km/h) 0 mm0 mm 0 cm 0 min 0 W/m²
21:48 14.3 °C 5.9 °C 57 % 4 km/h (7 km/h) 0 mm0 mm 0 cm 0 min 0 W/m²
21:42 14.8 °C 6.4 °C 57 % 5 km/h (9 km/h) 0 mm0 mm 0 cm 0 min 0 W/m²
21:36 15 °C 6.3 °C 56 % 5 km/h (9 km/h) 0 mm0 mm 0 cm 0 min 0 W/m²
21:30 15 °C 6.5 °C 57 % 4 km/h (7 km/h) 0 mm0 mm 0 cm 0 min 0 W/m²
21:24 14.6 °C 5.9 °C 56 % 5 km/h (9 km/h) 0 mm0 mm 0 cm 0 min 0 W/m²
21:18 14.7 °C 5.7 °C 55 % 6 km/h (9 km/h) 0 mm0 mm 0 cm 0 min 0 W/m²
21:12 15.1 °C 6.1 °C 55 % 5 km/h (9 km/h) 0 mm0 mm 0 cm 0 min 0 W/m²
21:06 14.8 °C 5.8 °C 55 % 3 km/h (6 km/h) 0 mm0 mm 0 cm 0 min 0 W/m²
21:00 15.4 °C 6.4 °C 55 % 3 km/h (5 km/h) 0 mm0 mm 0 cm 0 min 0 W/m²
20:54 15.5 °C 6.8 °C 56 % 3 km/h (8 km/h) 0 mm0 mm 0 cm 0 min 0 W/m²
20:48 15.4 °C 6.9 °C 57 % 4 km/h (8 km/h) 0 mm0 mm 0 cm 0 min 0 W/m²
20:42 15.4 °C 6.9 °C 57 % 5 km/h (9 km/h) 0 mm0 mm 0 cm 0 min 0 W/m²
20:36 15.6 °C 7.1 °C 57 % 2 km/h (6 km/h) 0 mm0 mm 0 cm 0 min 0 W/m²
20:30 16 °C 7 °C 55 % 2 km/h (4 km/h) 0 mm0 mm 0 cm 0 min 3.2 W/m²
20:24 16.2 °C 7.1 °C 55 % 2 km/h (4 km/h) 0 mm0 mm 0 cm 0 min 9.3 W/m²
20:18 16.5 °C 7.2 °C 54 % 3 km/h (5 km/h) 0 mm0 mm 0 cm 0 min 11.5 W/m²
20:12 16.9 °C 7.3 °C 53 % 3 km/h (5 km/h) 0 mm0 mm 0 cm 0 min 11.4 W/m²
20:06 17.2 °C 7.5 °C 53 % 3 km/h (7 km/h) 0 mm0 mm 0 cm 4 min 11.5 W/m²
20:00 17.4 °C 7.7 °C 53 % 3 km/h (7 km/h) 0 mm0 mm 0 cm 6 min 20.3 W/m²
19:54 17 °C 7.6 °C 54 % 3 km/h (7 km/h) 0 mm0 mm 0 cm 6 min 25.8 W/m²
19:48 17 °C 7.1 °C 52 % 4 km/h (8 km/h) 0 mm0 mm 0 cm 5 min 25 W/m²
19:42 17.1 °C 6.9 °C 51 % 4 km/h (7 km/h) 0 mm0 mm 0 cm 0 min 18.6 W/m²
19:36 17.3 °C 6.5 °C 49 % 4 km/h (7 km/h) 0 mm0 mm 0 cm 0 min 22 W/m²
19:30 17.7 °C 7.1 °C 50 % 5 km/h (8 km/h) 0 mm0 mm 0 cm 1 min 26.9 W/m²
19:24 18 °C 6.5 °C 47 % 5 km/h (8 km/h) 0 mm0 mm 0 cm 6 min 38 W/m²
19:18 18.4 °C 6.6 °C 46 % 6 km/h (9 km/h) 0 mm0 mm 0 cm 6 min 50 W/m²
19:12 18.8 °C 7.6 °C 48 % 6 km/h (10 km/h) 0 mm0 mm 0 cm 6 min 56.3 W/m²
19:06 18.7 °C 6.8 °C 46 % 5 km/h (10 km/h) 0 mm0 mm 0 cm 6 min 62.8 W/m²
19:00 18.9 °C 6.7 °C 45 % 5 km/h (14 km/h) 0 mm0 mm 0 cm 6 min 75.2 W/m²
18:54 18.8 °C 6.9 °C 46 % 6 km/h (14 km/h) 0 mm0 mm 0 cm 6 min 94.5 W/m²
18:48 18.5 °C 6 °C 44 % 5 km/h (10 km/h) 0 mm0 mm 0 cm 6 min 116.9 W/m²
18:42 18.7 °C 6.2 °C 44 % 6 km/h (9 km/h) 0 mm0 mm 0 cm 6 min 113.6 W/m²
18:36 18.7 °C 6.2 °C 44 % 6 km/h (10 km/h) 0 mm0 mm 0 cm 6 min 98.5 W/m²
18:30 18.6 °C 6.1 °C 44 % 5 km/h (10 km/h) 0 mm0 mm 0 cm 6 min 87.9 W/m²
18:24 18.8 °C 6.9 °C 46 % 5 km/h (10 km/h) 0 mm0 mm 0 cm 6 min 94.8 W/m²
18:18 18.7 °C 6.8 °C 46 % 5 km/h (10 km/h) 0 mm0 mm 0 cm 6 min 99 W/m²
18:12 18.8 °C 6.9 °C 46 % 5 km/h (11 km/h) 0 mm0 mm 0 cm 6 min 99.1 W/m²
18:06 18.8 °C 6.6 °C 45 % 5 km/h (11 km/h) 0 mm0 mm 0 cm 3 min 89.5 W/m²
18:00 18.9 °C 6.7 °C 45 % 5 km/h (10 km/h) 0 mm0 mm 0 cm 6 min 107.3 W/m²
17:54 18.8 °C 6.6 °C 45 % 6 km/h (13 km/h) 0 mm0 mm 0 cm 5 min 139.7 W/m²
17:48 19.1 °C 7.2 °C 46 % 6 km/h (13 km/h) 0 mm0 mm 0 cm 6 min 153.8 W/m²
17:42 18.8 °C 7.2 °C 47 % 6 km/h (14 km/h) 0 mm0 mm 0 cm 6 min 152.9 W/m²
17:36 18.8 °C 6.9 °C 46 % 7 km/h (14 km/h) 0 mm0 mm 0 cm 2 min 103.4 W/m²
17:30 19 °C 7.7 °C 48 % 7 km/h (12 km/h) 0 mm0 mm 0 cm 4 min 124.1 W/m²
17:24 19.1 °C 7.8 °C 48 % 9 km/h (15 km/h) 0 mm0 mm 0 cm 6 min 135.4 W/m²
17:18 19 °C 7.4 °C 47 % 10 km/h (15 km/h) 0 mm0 mm 0 cm 6 min 138.1 W/m²
17:12 19 °C 7.1 °C 46 % 8 km/h (15 km/h) 0 mm0 mm 0 cm 6 min 157.3 W/m²
17:06 19.6 °C 8 °C 47 % 8 km/h (14 km/h) 0 mm0 mm 0 cm 6 min 157.7 W/m²
17:00 19.5 °C 8.2 °C 48 % 8 km/h (17 km/h) 0 mm0 mm 0 cm 6 min 192.3 W/m²
16:54 19.5 °C 7.9 °C 47 % 9 km/h (15 km/h) 0 mm0 mm 0 cm 6 min 201.4 W/m²
16:48 19.5 °C 7.9 °C 47 % 10 km/h (19 km/h) 0 mm0 mm 0 cm 6 min 216.2 W/m²
16:42 19.5 °C 8.2 °C 48 % 9 km/h (19 km/h) 0 mm0 mm 0 cm 6 min 232.4 W/m²
16:36 19.4 °C 8.1 °C 48 % 9 km/h (16 km/h) 0 mm0 mm 0 cm 6 min 236.2 W/m²
16:30 19.5 °C 8.5 °C 49 % 9 km/h (17 km/h) 0 mm0 mm 0 cm 6 min 244.7 W/m²
16:24 19.2 °C 7.9 °C 48 % 10 km/h (17 km/h) 0 mm0 mm 0 cm 6 min 247.7 W/m²
16:18 19.2 °C 8.2 °C 49 % 10 km/h (22 km/h) 0 mm0 mm 0 cm 6 min 252.3 W/m²
16:12 19.3 °C 8 °C 48 % 8 km/h (22 km/h) 0 mm0 mm 0 cm 6 min 257.6 W/m²
16:06 19.4 °C 8.4 °C 49 % 6 km/h (17 km/h) 0 mm0 mm 0 cm 6 min 263.8 W/m²
16:00 19.3 °C 8 °C 48 % 8 km/h (15 km/h) 0 mm0 mm 0 cm 6 min 260.7 W/m²
15:54 19 °C 7.7 °C 48 % 10 km/h (18 km/h) 0 mm0 mm 0 cm 6 min 260.5 W/m²
15:48 19.2 °C 8.2 °C 49 % 8 km/h (18 km/h) 0 mm0 mm 0 cm 6 min 274.5 W/m²
15:42 18.8 °C 7.2 °C 47 % 9 km/h (19 km/h) 0 mm0 mm 0 cm 6 min 273.1 W/m²
15:36 18.9 °C 7.6 °C 48 % 9 km/h (19 km/h) 0 mm0 mm 0 cm 6 min 282.6 W/m²
15:30 18.7 °C 7.5 °C 48 % 10 km/h (18 km/h) 0 mm0 mm 0 cm 6 min 263 W/m²
15:24 18.6 °C 7.4 °C 48 % 9 km/h (18 km/h) 0 mm0 mm 0 cm 6 min 243.4 W/m²
15:18 18.8 °C 7.9 °C 49 % 8 km/h (15 km/h) 0 mm0 mm 0 cm 6 min 238 W/m²
15:12 18.7 °C 7.8 °C 49 % 8 km/h (15 km/h) 0 mm0 mm 0 cm 6 min 253.8 W/m²
15:06 18.8 °C 7.9 °C 49 % 9 km/h (16 km/h) 0 mm0 mm 0 cm 6 min 232.4 W/m²
15:00 18.8 °C 7.9 °C 49 % 10 km/h (18 km/h) 0 mm0 mm 0 cm 6 min 274.8 W/m²
14:54 19.1 °C 8.7 °C 51 % 9 km/h (18 km/h) 0 mm0 mm 0 cm 6 min 281.5 W/m²
14:48 18.5 °C 7.3 °C 48 % 8 km/h (16 km/h) 0 mm0 mm 0 cm 6 min 283.2 W/m²
14:42 18.7 °C 8.6 °C 52 % 8 km/h (15 km/h) 0 mm0 mm 0 cm 6 min 290.5 W/m²
14:36 18.3 °C 6.8 °C 47 % 9 km/h (16 km/h) 0 mm0 mm 0 cm 6 min 286.6 W/m²
14:30 18 °C 7.1 °C 49 % 10 km/h (18 km/h) 0 mm0 mm 0 cm 6 min 321.2 W/m²
14:24 18.1 °C 7.2 °C 49 % 9 km/h (18 km/h) 0 mm0 mm 0 cm 4 min 256.2 W/m²
14:18 18.3 °C 8 °C 51 % 9 km/h (17 km/h) 0 mm0 mm 0 cm 6 min 306.4 W/m²
14:12 18.2 °C 7.9 °C 51 % 8 km/h (15 km/h) 0 mm0 mm 0 cm 6 min 282 W/m²
14:06 18.2 °C 7.6 °C 50 % 7 km/h (16 km/h) 0 mm0 mm 0 cm 6 min 329.6 W/m²
14:00 17.8 °C 7.8 °C 52 % 8 km/h (15 km/h) 0 mm0 mm 0 cm 6 min 343.6 W/m²
13:54 17.7 °C 7.7 °C 52 % 9 km/h (17 km/h) 0 mm0 mm 0 cm 6 min 341.4 W/m²
13:48 17.6 °C 8.4 °C 55 % 8 km/h (17 km/h) 0 mm0 mm 0 cm 6 min 277 W/m²
13:42 17.7 °C 9.1 °C 57 % 8 km/h (15 km/h) 0 mm0 mm 0 cm 6 min 297.7 W/m²
13:36 17.6 °C 9 °C 57 % 8 km/h (15 km/h) 0 mm0 mm 0 cm 6 min 304.9 W/m²
13:30 17.5 °C 9.9 °C 61 % 6 km/h (13 km/h) 0 mm0 mm 0 cm 6 min 312.6 W/m²
13:24 17.1 °C 9.3 °C 60 % 6 km/h (13 km/h) 0 mm0 mm 0 cm 6 min 324.2 W/m²
13:18 17.1 °C 9.8 °C 62 % 6 km/h (13 km/h) 0 mm0 mm 0 cm 6 min 273.4 W/m²
13:12 16.7 °C 8.6 °C 59 % 8 km/h (15 km/h) 0 mm0 mm 0 cm 6 min 278.5 W/m²
13:06 16.5 °C 8.7 °C 60 % 8 km/h (15 km/h) 0 mm0 mm 0 cm 6 min 250 W/m²
13:00 16.8 °C 9.2 °C 61 % 6 km/h (14 km/h) 0 mm0 mm 0 cm 6 min 267.9 W/m²
12:54 16.9 °C 9.6 °C 62 % 7 km/h (14 km/h) 0 mm0 mm 0 cm 6 min 293.8 W/m²
12:48 16.4 °C 8.9 °C 61 % 7 km/h (14 km/h) 0 mm0 mm 0 cm 6 min 299.1 W/m²
12:42 16.5 °C 9.7 °C 64 % 8 km/h (15 km/h) 0 mm0 mm 0 cm 6 min 299.9 W/m²
12:36 16 °C 9 °C 63 % 7 km/h (15 km/h) 0 mm0 mm 0 cm 6 min 296.6 W/m²
12:30 16.1 °C 9.3 °C 64 % 6 km/h (15 km/h) 0 mm0 mm 0 cm 6 min 278.2 W/m²
12:24 16 °C 9.2 °C 64 % 6 km/h (12 km/h) 0 mm0 mm 0 cm 6 min 280.8 W/m²
12:18 15.9 °C 9.6 °C 66 % 7 km/h (13 km/h) 0 mm0 mm 0 cm 6 min 273.3 W/m²
12:12 15.8 °C 9 °C 64 % 5 km/h (12 km/h) 0 mm0 mm 0 cm 6 min 267.3 W/m²
12:06 15.9 °C 9.1 °C 64 % 3 km/h (10 km/h) 0 mm0 mm 0 cm 6 min 261 W/m²
12:00 15.2 °C 8 °C 62 % 5 km/h (10 km/h) 0 mm0 mm 0 cm 6 min 269.4 W/m²
11:54 15.2 °C 8.4 °C 64 % 6 km/h (12 km/h) 0 mm0 mm 0 cm 6 min 272.6 W/m²
11:48 14.7 °C 7.5 °C 62 % 6 km/h (12 km/h) 0 mm0 mm 0 cm 6 min 267.4 W/m²
11:42 14.9 °C 7.4 °C 61 % 5 km/h (13 km/h) 0 mm0 mm 0 cm 6 min 263.4 W/m²
11:36 15.3 °C 8.8 °C 65 % 5 km/h (13 km/h) 0 mm0 mm 0 cm 6 min 257.4 W/m²
11:30 15.1 °C 8.3 °C 64 % 5 km/h (11 km/h) 0 mm0 mm 0 cm 6 min 249.8 W/m²
11:24 14.8 °C 8.5 °C 66 % 3 km/h (9 km/h) 0 mm0 mm 0 cm 6 min 243.6 W/m²
11:18 14.5 °C 7.8 °C 64 % 4 km/h (8 km/h) 0 mm0 mm 0 cm 6 min 241.3 W/m²
11:12 14.4 °C 7.9 °C 65 % 4 km/h (8 km/h) 0 mm0 mm 0 cm 6 min 234.6 W/m²
11:06 14.3 °C 8 °C 66 % 4 km/h (9 km/h) 0 mm0 mm 0 cm 6 min 232.3 W/m²
11:00 14.1 °C 8.1 °C 67 % 4 km/h (9 km/h) 0 mm0 mm 0 cm 6 min 221.1 W/m²
10:54 13.7 °C 8.1 °C 69 % 5 km/h (9 km/h) 0 mm0 mm 0 cm 6 min 220.5 W/m²
10:48 13.8 °C 8.2 °C 69 % 5 km/h (9 km/h) 0 mm0 mm 0 cm 6 min 217.8 W/m²
10:42 14 °C 8.4 °C 69 % 3 km/h (9 km/h) 0 mm0 mm 0 cm 6 min 210.1 W/m²
10:36 13.6 °C 7.1 °C 65 % 3 km/h (6 km/h) 0 mm0 mm 0 cm 6 min 200 W/m²
10:30 13.4 °C 7.4 °C 67 % 3 km/h (6 km/h) 0 mm0 mm 0 cm 6 min 187.3 W/m²
10:24 13.5 °C 7.5 °C 67 % 4 km/h (7 km/h) 0 mm0 mm 0 cm 6 min 184.5 W/m²
10:18 13.3 °C 6.9 °C 65 % 4 km/h (7 km/h) 0 mm0 mm 0 cm 6 min 187.9 W/m²
10:12 13.3 °C 6.4 °C 63 % 3 km/h (7 km/h) 0 mm0 mm 0 cm 6 min 184.6 W/m²
10:06 13.2 °C 7 °C 66 % 3 km/h (7 km/h) 0 mm0 mm 0 cm 6 min 191.1 W/m²
10:00 13.3 °C 7.9 °C 70 % 4 km/h (7 km/h) 0 mm0 mm 0 cm 6 min 178.7 W/m²
09:54 13.5 °C 8.3 °C 71 % 2 km/h (5 km/h) 0 mm0 mm 0 cm 6 min 170.6 W/m²
09:48 13.4 °C 8.2 °C 71 % 2 km/h (5 km/h) 0 mm0 mm 0 cm 6 min 159.9 W/m²
09:42 13.6 °C 8.8 °C 73 % 2 km/h (4 km/h) 0 mm0 mm 0 cm 6 min 151.6 W/m²
09:36 13.1 °C 8.4 °C 73 % 2 km/h (5 km/h) 0 mm0 mm 0 cm 6 min 143.3 W/m²
09:30 12.7 °C 8 °C 73 % 3 km/h (6 km/h) 0 mm0 mm 0 cm 6 min 135.1 W/m²
09:24 12.9 °C 8.4 °C 74 % 3 km/h (6 km/h) 0 mm0 mm 0 cm 6 min 129 W/m²
09:18 12.7 °C 8.8 °C 77 % 2 km/h (5 km/h) 0 mm0 mm 0 cm 6 min 121.7 W/m²
09:12 12.7 °C 8.6 °C 76 % 2 km/h (4 km/h) 0 mm0 mm 0 cm 6 min 114.1 W/m²
09:06 12.7 °C 9 °C 78 % 3 km/h (6 km/h) 0 mm0 mm 0 cm 6 min 105.9 W/m²
09:00 12.2 °C 8.8 °C 80 % 4 km/h (6 km/h) 0 mm0 mm 0 cm 6 min 99.7 W/m²
08:54 11.9 °C 9.1 °C 83 % 5 km/h (7 km/h) 0 mm0 mm 0 cm 6 min 92.5 W/m²
08:48 11.5 °C 8.5 °C 82 % 4 km/h (7 km/h) 0 mm0 mm 0 cm 6 min 84.8 W/m²
08:42 11.4 °C 8.4 °C 82 % 3 km/h (5 km/h) 0 mm0 mm 0 cm 6 min 77.3 W/m²
08:36 11 °C 8.2 °C 83 % 3 km/h (5 km/h) 0 mm0 mm 0 cm 6 min 69.5 W/m²
08:30 10.8 °C 8.2 °C 84 % 4 km/h (7 km/h) 0 mm0 mm 0 cm 6 min 59.2 W/m²
08:24 10.4 °C 7.8 °C 84 % 5 km/h (7 km/h) 0 mm0 mm 0 cm 6 min 57 W/m²
08:18 10.3 °C 7.9 °C 85 % 4 km/h (7 km/h) 0 mm0 mm 0 cm 6 min 50.8 W/m²
08:12 9.9 °C 7.7 °C 86 % 3 km/h (5 km/h) 0 mm0 mm 0 cm 2 min 20.8 W/m²
08:06 9.7 °C 7.3 °C 85 % 4 km/h (7 km/h) 0 mm0 mm 0 cm 0 min 10 W/m²
08:00 9.7 °C 7.3 °C 85 % 6 km/h (10 km/h) 0 mm0 mm 0 cm 0 min 8.8 W/m²
07:54 9.5 °C 7.1 °C 85 % 8 km/h (10 km/h) 0 mm0 mm 0 cm 0 min 7.7 W/m²
07:48 9.4 °C 6.8 °C 84 % 7 km/h (10 km/h) 0 mm0 mm 0 cm 0 min 6.5 W/m²
07:42 9.7 °C 7.3 °C 85 % 6 km/h (9 km/h) 0 mm0 mm 0 cm 0 min 5.4 W/m²
07:36 9.7 °C 7.1 °C 84 % 4 km/h (7 km/h) 0 mm0 mm 0 cm 0 min 3.9 W/m²
07:30 9.7 °C 7.3 °C 85 % 2 km/h (6 km/h) 0 mm0 mm 0 cm 0 min 0.1 W/m²
07:24 9.7 °C 7.5 °C 86 % 2 km/h (6 km/h) 0 mm0 mm 0 cm 0 min 0 W/m²
07:18 9.7 °C 7.5 °C 86 % 2 km/h (5 km/h) 0 mm0 mm 0 cm 0 min 0 W/m²
07:12 9.4 °C 7 °C 85 % 3 km/h (6 km/h) 0 mm0 mm 0 cm 0 min 0 W/m²
07:06 9.4 °C 7 °C 85 % 3 km/h (6 km/h) 0 mm0 mm 0 cm 0 min 0 W/m²
07:00 9.5 °C 6.9 °C 84 % 4 km/h (7 km/h) 0 mm0 mm 0 cm 0 min 0 W/m²
06:54 9.6 °C 7 °C 84 % 4 km/h (7 km/h) 0 mm0 mm 0 cm 0 min 0 W/m²
06:48 9.5 °C 6.9 °C 84 % 3 km/h (6 km/h) 0 mm0 mm 0 cm 0 min 0 W/m²
06:42 9.8 °C 7.4 °C 85 % 3 km/h (6 km/h) 0 mm0 mm 0 cm 0 min 0 W/m²
06:36 9.6 °C 6.9 °C 83 % 4 km/h (7 km/h) 0 mm0 mm 0 cm 0 min 0 W/m²
06:30 9.8 °C 7.2 °C 84 % 3 km/h (7 km/h) 0 mm0 mm 0 cm 0 min 0 W/m²
06:24 9.7 °C 7.1 °C 84 % 0 km/h (4 km/h) 0 mm0 mm 0 cm 0 min 0 W/m²
06:18 9.6 °C 6.9 °C 83 % 2 km/h (5 km/h) 0 mm0 mm 0 cm 0 min 0 W/m²
06:12 9.8 °C 6.9 °C 82 % 3 km/h (6 km/h) 0 mm0 mm 0 cm 0 min 0 W/m²
06:06 9.8 °C 6.9 °C 82 % 3 km/h (7 km/h) 0 mm0 mm 0 cm 0 min 0 W/m²
06:00 9.9 °C 6.8 °C 81 % 3 km/h (5 km/h) 0 mm0 mm 0 cm 0 min 0 W/m²
05:54 10.1 °C 7 °C 81 % 4 km/h (5 km/h) 0 mm0 mm 0 cm 0 min 0 W/m²
05:48 10.1 °C 6.8 °C 80 % 4 km/h (5 km/h) 0 mm0 mm 0 cm 0 min 0 W/m²
05:42 10 °C 6.5 °C 79 % 4 km/h (5 km/h) 0 mm0 mm 0 cm 0 min 0 W/m²
05:36 10.2 °C 6.7 °C 79 % 4 km/h (6 km/h) 0 mm0 mm 0 cm 0 min 0 W/m²
05:30 10.2 °C 6.7 °C 79 % 5 km/h (7 km/h) 0 mm0 mm 0 cm 0 min 0 W/m²
05:24 10.4 °C 6.9 °C 79 % 5 km/h (7 km/h) 0 mm0 mm 0 cm 0 min 0 W/m²
05:18 10.4 °C 6.9 °C 79 % 5 km/h (7 km/h) 0 mm0 mm 0 cm 0 min 0 W/m²
05:12 10.3 °C 6.8 °C 79 % 5 km/h (7 km/h) 0 mm0 mm 0 cm 0 min 0 W/m²
05:06 10.3 °C 6.6 °C 78 % 4 km/h (6 km/h) 0 mm0 mm 0 cm 0 min 0 W/m²
05:00 10.4 °C 6.9 °C 79 % 3 km/h (6 km/h) 0 mm0 mm 0 cm 0 min 0 W/m²
04:54 10.4 °C 6.9 °C 79 % 3 km/h (6 km/h) 0 mm0 mm 0 cm 0 min 0 W/m²
04:48 10.4 °C 7.1 °C 80 % 3 km/h (5 km/h) 0 mm0 mm 0 cm 0 min 0 W/m²
04:42 10.4 °C 7.1 °C 80 % 3 km/h (5 km/h) 0 mm0 mm 0 cm 0 min 0 W/m²
04:36 10.4 °C 7.1 °C 80 % 3 km/h (6 km/h) 0 mm0 mm 0 cm 0 min 0 W/m²
04:30 10.4 °C 7.3 °C 81 % 4 km/h (6 km/h) 0 mm0 mm 0 cm 0 min 0 W/m²
04:24 10.3 °C 7.2 °C 81 % 3 km/h (5 km/h) 0 mm0 mm 0 cm 0 min 0 W/m²
04:18 10 °C 6.9 °C 81 % 3 km/h (6 km/h) 0 mm0 mm 0 cm 0 min 0 W/m²
04:12 9.8 °C 6.3 °C 79 % 5 km/h (8 km/h) 0 mm0 mm 0 cm 0 min 0 W/m²
04:06 9.8 °C 6.1 °C 78 % 5 km/h (8 km/h) 0 mm0 mm 0 cm 0 min 0 W/m²
04:00 10.2 °C 6.7 °C 79 % 5 km/h (8 km/h) 0 mm0 mm 0 cm 0 min 0 W/m²
03:54 10.3 °C 6.8 °C 79 % 5 km/h (8 km/h) 0 mm0 mm 0 cm 0 min 0 W/m²
03:48 9.5 °C 5.7 °C 77 % 5 km/h (8 km/h) 0 mm0 mm 0 cm 0 min 0 W/m²
03:42 10.3 °C 6.4 °C 77 % 4 km/h (8 km/h) 0 mm0 mm 0 cm 0 min 0 W/m²
03:36 10.2 °C 6.3 °C 77 % 5 km/h (9 km/h) 0 mm0 mm 0 cm 0 min 0 W/m²
03:30 10.5 °C 6.8 °C 78 % 6 km/h (9 km/h) 0 mm0 mm 0 cm 0 min 0 W/m²
03:24 10.7 °C 6.8 °C 77 % 6 km/h (9 km/h) 0 mm0 mm 0 cm 0 min 0 W/m²
03:18 10.7 °C 7 °C 78 % 5 km/h (7 km/h) 0 mm0 mm 0 cm 0 min 0 W/m²
03:12 10.8 °C 7.1 °C 78 % 4 km/h (7 km/h) 0 mm0 mm 0 cm 0 min 0 W/m²
03:06 10.4 °C 6.7 °C 78 % 4 km/h (6 km/h) 0 mm0 mm 0 cm 0 min 0 W/m²
03:00 9.9 °C 5.9 °C 76 % 4 km/h (7 km/h) 0 mm0 mm 0 cm 0 min 0 W/m²
02:54 10.2 °C 6.2 °C 76 % 5 km/h (8 km/h) 0 mm0 mm 0 cm 0 min 0 W/m²
02:48 10.9 °C 6.8 °C 76 % 5 km/h (8 km/h) 0 mm0 mm 0 cm 0 min 0 W/m²
02:42 10.8 °C 6.7 °C 76 % 5 km/h (8 km/h) 0 mm0 mm 0 cm 0 min 0 W/m²
02:36 10.3 °C 6.1 °C 75 % 6 km/h (10 km/h) 0 mm0 mm 0 cm 0 min 0 W/m²
02:30 10.5 °C 6.3 °C 75 % 5 km/h (10 km/h) 0 mm0 mm 0 cm 0 min 0 W/m²
02:24 10.9 °C 6.8 °C 76 % 5 km/h (8 km/h) 0 mm0 mm 0 cm 0 min 0 W/m²
02:18 10.1 °C 5.7 °C 74 % 4 km/h (8 km/h) 0 mm0 mm 0 cm 0 min 0 W/m²
02:12 10.8 °C 6.5 °C 75 % 2 km/h (7 km/h) 0 mm0 mm 0 cm 0 min 0 W/m²
02:06 11.3 °C 7.4 °C 77 % 6 km/h (10 km/h) 0 mm0 mm 0 cm 0 min 0 W/m²
02:00 10.5 °C 7 °C 79 % 6 km/h (10 km/h) 0 mm0 mm 0 cm 0 min 0 W/m²
01:54 9.9 °C 6.6 °C 80 % 8 km/h (14 km/h) 0 mm0 mm 0 min 0 W/m²
01:48 10.8 °C 9.1 °C 89 % 12 km/h (16 km/h) 0 mm0 mm 0 min 0 W/m²
01:42 10.7 °C 9.3 °C 91 % 13 km/h (16 km/h) 0 mm0 mm 0 min 0 W/m²
01:36 10.4 °C 8.8 °C 90 % 13 km/h (16 km/h) 0 mm0 mm 0 min 0 W/m²
01:30 10.5 °C 8.9 °C 90 % 13 km/h (16 km/h) 0 mm0 mm 0 min 0 W/m²
01:24 10.4 °C 8.8 °C 90 % 12 km/h (15 km/h) 0 mm0 mm 0 min 0 W/m²
01:18 10.4 °C 8.8 °C 90 % 11 km/h (14 km/h) 0 mm0 mm 0 min 0 W/m²
01:12 10.7 °C 9.3 °C 91 % 11 km/h (15 km/h) 0 mm0 mm 0 min 0 W/m²
01:06 10.7 °C 9.3 °C 91 % 11 km/h (15 km/h) 0 mm0 mm 0 min 0 W/m²
01:00 10.7 °C 9.5 °C 92 % 11 km/h (14 km/h) 0 mm0 mm 0 min 0 W/m²
00:54 10.7 °C 9.5 °C 92 % 11 km/h (14 km/h) 0 mm0 mm 0 min 0 W/m²
00:48 10.8 °C 9.6 °C 92 % 10 km/h (14 km/h) 0 mm0 mm 0 min 0 W/m²
00:42 10.7 °C 9.5 °C 92 % 10 km/h (14 km/h) 0 mm0 mm 0 min 0 W/m²
00:36 10.6 °C 9.2 °C 91 % 9 km/h (13 km/h) 0 mm0 mm 0 min 0 W/m²
00:30 10.6 °C 9.2 °C 91 % 9 km/h (13 km/h) 0 mm0 mm 0 min 0 W/m²
00:24 10.7 °C 9.1 °C 90 % 9 km/h (12 km/h) 0 mm0 mm 0 min 0 W/m²
00:18 10.6 °C 9 °C 90 % 9 km/h (12 km/h) 0 mm0 mm 0 min 0 W/m²
00:12 10.6 °C 9 °C 90 % 8 km/h (12 km/h) 0 mm0 mm 0 min 0 W/m²
00:06 10.6 °C 9 °C 90 % 9 km/h (13 km/h) 0 mm0 mm 0 min 0 W/m²
00:00 10.6 °C 9 °C 90 % 8 km/h (12 km/h) 0 mm0 mm 0 min 0 W/m²

Données via Météo-France

Relevés météo à Chastreix

Cette page rassemble les observations de la station de Chastreix : température, humidité, vent, précipitations et pression atmosphérique. Les graphiques facilitent le suivi de la journée, tandis que le tableau donne accès aux mesures horaires et infra-horaires disponibles.

Pour replacer ces mesures dans leur contexte, consultez la climatologie de Chastreix ainsi que ses normales et records. Retrouvez aussi la carte des observations météo en temps réel.